sensor_id;sensor_type;location;lat;lon;timestamp;pressure;altitude;pressure_sealevel;temperature;humidity
50592;BME280;36548;50.506;30.834;2022-09-11T00:01:02;99551.83;;;14.35;70.19
50592;BME280;36548;50.506;30.834;2022-09-11T00:02:11;99565.02;;;14.28;70.24
50592;BME280;36548;50.506;30.834;2022-09-11T00:03:28;99554.53;;;14.44;70.02
50592;BME280;36548;50.506;30.834;2022-09-11T00:04:39;99560.51;;;14.38;70.03
50592;BME280;36548;50.506;30.834;2022-09-11T00:05:54;99539.31;;;14.53;69.78
50592;BME280;36548;50.506;30.834;2022-09-11T00:07:05;99559.09;;;14.44;69.86
50592;BME280;36548;50.506;30.834;2022-09-11T00:08:21;99538.50;;;14.62;69.61
50592;BME280;36548;50.506;30.834;2022-09-11T00:09:31;99539.61;;;14.50;69.33
50592;BME280;36548;50.506;30.834;2022-09-11T00:11:09;99543.18;;;14.51;69.64
50592;BME280;36548;50.506;30.834;2022-09-11T00:12:20;99544.16;;;14.30;69.86
50592;BME280;36548;50.506;30.834;2022-09-11T00:13:32;99544.15;;;14.20;70.16
50592;BME280;36548;50.506;30.834;2022-09-11T00:14:49;99538.60;;;14.22;70.60
50592;BME280;36548;50.506;30.834;2022-09-11T00:15:59;99548.10;;;14.06;70.72
50592;BME280;36548;50.506;30.834;2022-09-11T00:17:11;99530.73;;;13.99;71.17
50592;BME280;36548;50.506;30.834;2022-09-11T00:18:21;99532.88;;;13.95;71.71
50592;BME280;36548;50.506;30.834;2022-09-11T00:19:30;99533.43;;;13.99;71.92
50592;BME280;36548;50.506;30.834;2022-09-11T00:20:46;99545.94;;;14.00;72.12
50592;BME280;36548;50.506;30.834;2022-09-11T00:22:03;99530.51;;;14.22;72.19
50592;BME280;36548;50.506;30.834;2022-09-11T00:23:13;99535.31;;;14.18;72.12
50592;BME280;36548;50.506;30.834;2022-09-11T00:24:30;99524.53;;;14.38;71.90
50592;BME280;36548;50.506;30.834;2022-09-11T00:25:40;99539.45;;;14.32;71.94
50592;BME280;36548;50.506;30.834;2022-09-11T00:26:55;99511.32;;;14.54;71.57
50592;BME280;36548;50.506;30.834;2022-09-11T00:28:05;99524.53;;;14.47;71.58
50592;BME280;36548;50.506;30.834;2022-09-11T00:29:15;99524.12;;;14.52;71.47
50592;BME280;36548;50.506;30.834;2022-09-11T00:30:27;99531.65;;;14.58;71.49
50592;BME280;36548;50.506;30.834;2022-09-11T00:31:43;99513.89;;;14.75;71.43
50592;BME280;36548;50.506;30.834;2022-09-11T00:32:52;99535.94;;;14.71;71.25
50592;BME280;36548;50.506;30.834;2022-09-11T00:34:01;99521.84;;;14.77;71.14
50592;BME280;36548;50.506;30.834;2022-09-11T00:35:11;99518.01;;;14.79;71.12
50592;BME280;36548;50.506;30.834;2022-09-11T00:36:24;99523.15;;;14.82;71.14
50592;BME280;36548;50.506;30.834;2022-09-11T00:37:39;99510.02;;;14.97;71.23
50592;BME280;36548;50.506;30.834;2022-09-11T00:38:49;99519.26;;;14.95;70.98
50592;BME280;36548;50.506;30.834;2022-09-11T00:40:05;99496.47;;;15.07;71.02
50592;BME280;36548;50.506;30.834;2022-09-11T00:41:17;99495.21;;;15.02;70.92
50592;BME280;36548;50.506;30.834;2022-09-11T00:42:28;99507.16;;;14.99;70.98
50592;BME280;36548;50.506;30.834;2022-09-11T00:45:04;99503.47;;;15.00;71.44
50592;BME280;36548;50.506;30.834;2022-09-11T00:46:14;99489.09;;;15.09;71.25
50592;BME280;36548;50.506;30.834;2022-09-11T00:47:25;99491.76;;;15.19;71.03
50592;BME280;36548;50.506;30.834;2022-09-11T00:48:36;99501.27;;;15.23;70.86
50592;BME280;36548;50.506;30.834;2022-09-11T00:50:11;99501.27;;;15.23;70.86
50592;BME280;36548;50.506;30.834;2022-09-11T00:51:23;99481.48;;;15.23;71.03
50592;BME280;36548;50.506;30.834;2022-09-11T00:52:45;99490.84;;;15.38;70.86
50592;BME280;36548;50.506;30.834;2022-09-11T00:53:53;99489.58;;;15.32;70.71
50592;BME280;36548;50.506;30.834;2022-09-11T00:55:15;99490.73;;;15.30;70.81
50592;BME280;36548;50.506;30.834;2022-09-11T00:56:30;99493.58;;;15.28;70.93
50592;BME280;36548;50.506;30.834;2022-09-11T00:57:43;99491.56;;;15.30;70.87
50592;BME280;36548;50.506;30.834;2022-09-11T00:58:54;99494.58;;;15.27;71.10
50592;BME280;36548;50.506;30.834;2022-09-11T01:00:06;99476.19;;;15.31;71.08
50592;BME280;36548;50.506;30.834;2022-09-11T01:01:23;99477.27;;;15.48;70.79
50592;BME280;36548;50.506;30.834;2022-09-11T01:02:34;99473.05;;;15.36;70.87
50592;BME280;36548;50.506;30.834;2022-09-11T01:03:44;99467.75;;;15.44;70.59
50592;BME280;36548;50.506;30.834;2022-09-11T01:05:00;99470.25;;;15.55;70.21
50592;BME280;36548;50.506;30.834;2022-09-11T01:06:10;99483.27;;;15.42;70.47
50592;BME280;36548;50.506;30.834;2022-09-11T01:07:21;99481.02;;;15.37;70.64
50592;BME280;36548;50.506;30.834;2022-09-11T01:08:30;99456.94;;;15.44;70.51
50592;BME280;36548;50.506;30.834;2022-09-11T01:09:42;99476.55;;;15.46;70.32
50592;BME280;36548;50.506;30.834;2022-09-11T01:11:18;99490.53;;;15.41;70.48
50592;BME280;36548;50.506;30.834;2022-09-11T01:12:44;99466.30;;;15.49;70.76
50592;BME280;36548;50.506;30.834;2022-09-11T01:16:40;99457.63;;;15.46;70.37
50592;BME280;36548;50.506;30.834;2022-09-11T01:27:58;99466.05;;;15.43;70.81
50592;BME280;36548;50.506;30.834;2022-09-11T01:30:39;99465.47;;;15.39;70.95
50592;BME280;36548;50.506;30.834;2022-09-11T01:33:29;99457.36;;;15.39;71.00
50592;BME280;36548;50.506;30.834;2022-09-11T01:37:20;99467.50;;;15.37;71.07
50592;BME280;36548;50.506;30.834;2022-09-11T01:38:37;99458.19;;;15.49;71.38
50592;BME280;36548;50.506;30.834;2022-09-11T01:39:52;99468.90;;;15.41;71.28
50592;BME280;36548;50.506;30.834;2022-09-11T01:42:31;99440.25;;;15.48;71.73
50592;BME280;36548;50.506;30.834;2022-09-11T01:43:59;99447.95;;;15.43;71.57
50592;BME280;36548;50.506;30.834;2022-09-11T01:45:17;99462.45;;;15.52;71.54
50592;BME280;36548;50.506;30.834;2022-09-11T01:46:26;99454.50;;;15.41;71.67
50592;BME280;36548;50.506;30.834;2022-09-11T01:47:38;99471.86;;;15.48;71.34
50592;BME280;36548;50.506;30.834;2022-09-11T01:49:11;99455.91;;;15.45;71.35
50592;BME280;36548;50.506;30.834;2022-09-11T01:50:29;99454.45;;;15.50;71.45
50592;BME280;36548;50.506;30.834;2022-09-11T01:51:41;99455.95;;;15.35;71.69
50592;BME280;36548;50.506;30.834;2022-09-11T01:52:59;99446.65;;;15.47;71.97
50592;BME280;36548;50.506;30.834;2022-09-11T01:54:13;99445.70;;;15.39;71.92
50592;BME280;36548;50.506;30.834;2022-09-11T01:57:01;99433.74;;;15.41;72.42
50592;BME280;36548;50.506;30.834;2022-09-11T01:58:16;99446.17;;;15.34;72.36
50592;BME280;36548;50.506;30.834;2022-09-11T01:59:35;99443.31;;;15.36;72.44
50592;BME280;36548;50.506;30.834;2022-09-11T02:00:53;99430.98;;;15.51;72.11
50592;BME280;36548;50.506;30.834;2022-09-11T02:02:07;99430.05;;;15.42;72.19
50592;BME280;36548;50.506;30.834;2022-09-11T02:03:28;99434.00;;;15.48;72.17
50592;BME280;36548;50.506;30.834;2022-09-11T02:04:44;99440.45;;;15.37;72.36
50592;BME280;36548;50.506;30.834;2022-09-11T02:07:25;99422.16;;;15.49;72.21
50592;BME280;36548;50.506;30.834;2022-09-11T02:08:50;99433.89;;;15.40;72.39
50592;BME280;36548;50.506;30.834;2022-09-11T02:10:11;99423.70;;;15.51;72.55
50592;BME280;36548;50.506;30.834;2022-09-11T02:11:21;99433.28;;;15.46;72.23
50592;BME280;36548;50.506;30.834;2022-09-11T02:12:37;99417.20;;;15.44;72.43
50592;BME280;36548;50.506;30.834;2022-09-11T02:13:52;99422.77;;;15.43;72.50
50592;BME280;36548;50.506;30.834;2022-09-11T02:15:00;99418.77;;;15.47;72.42
50592;BME280;36548;50.506;30.834;2022-09-11T02:16:14;99417.77;;;15.48;72.36
50592;BME280;36548;50.506;30.834;2022-09-11T02:19:05;99420.63;;;15.46;72.50
50592;BME280;36548;50.506;30.834;2022-09-11T02:20:17;99415.34;;;15.45;72.43
50592;BME280;36548;50.506;30.834;2022-09-11T02:21:30;99415.95;;;15.39;72.66
50592;BME280;36548;50.506;30.834;2022-09-11T02:22:46;99402.23;;;15.50;72.75
50592;BME280;36548;50.506;30.834;2022-09-11T02:23:57;99404.98;;;15.40;72.80
50592;BME280;36548;50.506;30.834;2022-09-11T02:25:07;99411.86;;;15.34;72.99
50592;BME280;36548;50.506;30.834;2022-09-11T02:26:18;99410.30;;;15.32;73.26
50592;BME280;36548;50.506;30.834;2022-09-11T02:27:35;99402.12;;;15.42;73.24
50592;BME280;36548;50.506;30.834;2022-09-11T02:28:45;99407.01;;;15.38;73.15
50592;BME280;36548;50.506;30.834;2022-09-11T02:30:00;99405.64;;;15.52;72.96
50592;BME280;36548;50.506;30.834;2022-09-11T02:31:12;99416.21;;;15.45;72.93
50592;BME280;36548;50.506;30.834;2022-09-11T02:32:29;99401.63;;;15.56;72.87
50592;BME280;36548;50.506;30.834;2022-09-11T02:33:39;99408.25;;;15.44;73.03
50592;BME280;36548;50.506;30.834;2022-09-11T02:34:56;99394.92;;;15.60;72.62
50592;BME280;36548;50.506;30.834;2022-09-11T02:37:46;99396.22;;;15.56;72.73
50592;BME280;36548;50.506;30.834;2022-09-11T02:39:11;99392.50;;;15.57;72.94
50592;BME280;36548;50.506;30.834;2022-09-11T02:42:05;99414.38;;;15.64;72.81
50592;BME280;36548;50.506;30.834;2022-09-11T02:43:36;99396.41;;;15.45;72.93
50592;BME280;36548;50.506;30.834;2022-09-11T02:46:46;99399.11;;;15.45;73.15
50592;BME280;36548;50.506;30.834;2022-09-11T02:50:03;99403.84;;;15.43;73.19
50592;BME280;36548;50.506;30.834;2022-09-11T02:53:00;99395.57;;;15.44;73.19
50592;BME280;36548;50.506;30.834;2022-09-11T02:57:07;99399.11;;;15.45;73.15
50592;BME280;36548;50.506;30.834;2022-09-11T02:59:52;99398.37;;;15.53;73.40
50592;BME280;36548;50.506;30.834;2022-09-11T03:01:07;99402.69;;;15.45;73.36
50592;BME280;36548;50.506;30.834;2022-09-11T03:02:17;99406.08;;;15.47;73.25
50592;BME280;36548;50.506;30.834;2022-09-11T03:03:41;99409.59;;;15.58;73.25
50592;BME280;36548;50.506;30.834;2022-09-11T03:04:53;99410.50;;;15.48;73.29
50592;BME280;36548;50.506;30.834;2022-09-11T03:06:12;99406.73;;;15.59;73.22
50592;BME280;36548;50.506;30.834;2022-09-11T03:07:22;99408.94;;;15.46;73.35
50592;BME280;36548;50.506;30.834;2022-09-11T03:08:38;99408.72;;;15.57;73.38
50592;BME280;36548;50.506;30.834;2022-09-11T03:09:49;99405.09;;;15.48;73.37
50592;BME280;36548;50.506;30.834;2022-09-11T03:11:02;99409.88;;;15.55;73.25
50592;BME280;36548;50.506;30.834;2022-09-11T03:12:17;99407.66;;;15.68;73.11
50592;BME280;36548;50.506;30.834;2022-09-11T03:13:29;99409.75;;;15.56;73.08
50592;BME280;36548;50.506;30.834;2022-09-11T03:14:39;99410.19;;;15.51;73.21
50592;BME280;36548;50.506;30.834;2022-09-11T03:15:55;99408.13;;;15.63;73.14
50592;BME280;36548;50.506;30.834;2022-09-11T03:17:05;99427.97;;;15.54;73.28
50592;BME280;36548;50.506;30.834;2022-09-11T03:18:16;99416.16;;;15.55;73.25
50592;BME280;36548;50.506;30.834;2022-09-11T03:19:26;99422.97;;;15.59;73.21
50592;BME280;36548;50.506;30.834;2022-09-11T03:20:45;99415.78;;;15.68;73.19
50592;BME280;36548;50.506;30.834;2022-09-11T03:21:58;99411.15;;;15.60;73.17
50592;BME280;36548;50.506;30.834;2022-09-11T03:23:13;99410.22;;;15.69;73.14
50592;BME280;36548;50.506;30.834;2022-09-11T03:24:23;99425.67;;;15.59;73.23
50592;BME280;36548;50.506;30.834;2022-09-11T03:25:33;99418.23;;;15.61;73.28
50592;BME280;36548;50.506;30.834;2022-09-11T03:26:43;99414.38;;;15.64;73.21
50592;BME280;36548;50.506;30.834;2022-09-11T03:27:54;99426.91;;;15.65;73.21
50592;BME280;36548;50.506;30.834;2022-09-11T03:29:08;99425.54;;;15.79;73.06
50592;BME280;36548;50.506;30.834;2022-09-11T03:30:20;99422.34;;;15.65;72.85
50592;BME280;36548;50.506;30.834;2022-09-11T03:31:31;99416.50;;;15.70;72.94
50592;BME280;36548;50.506;30.834;2022-09-11T03:32:43;99409.53;;;15.67;72.88
50592;BME280;36548;50.506;30.834;2022-09-11T03:33:54;99420.51;;;15.66;73.01
50592;BME280;36548;50.506;30.834;2022-09-11T03:35:04;99418.64;;;15.66;72.99
50592;BME280;36548;50.506;30.834;2022-09-11T03:36:13;99413.39;;;15.65;73.11
50592;BME280;36548;50.506;30.834;2022-09-11T03:37:23;99413.39;;;15.65;73.04
50592;BME280;36548;50.506;30.834;2022-09-11T03:38:36;99420.35;;;15.67;73.03
50592;BME280;36548;50.506;30.834;2022-09-11T03:39:51;99415.31;;;15.73;73.21
50592;BME280;36548;50.506;30.834;2022-09-11T03:41:02;99422.50;;;15.64;73.28
50592;BME280;36548;50.506;30.834;2022-09-11T03:42:22;99422.81;;;15.61;73.27
50592;BME280;36548;50.506;30.834;2022-09-11T03:43:32;99420.79;;;15.63;73.29
50592;BME280;36548;50.506;30.834;2022-09-11T03:44:41;99434.03;;;15.66;73.15
50592;BME280;36548;50.506;30.834;2022-09-11T03:45:56;99429.40;;;15.76;73.24
50592;BME280;36548;50.506;30.834;2022-09-11T03:47:05;99429.47;;;15.66;73.26
50592;BME280;36548;50.506;30.834;2022-09-11T03:48:17;99430.30;;;15.67;73.31
50592;BME280;36548;50.506;30.834;2022-09-11T03:49:32;99432.53;;;15.81;73.21
50592;BME280;36548;50.506;30.834;2022-09-11T03:50:41;99443.24;;;15.73;73.08
50592;BME280;36548;50.506;30.834;2022-09-11T03:51:53;99430.70;;;15.72;73.00
50592;BME280;36548;50.506;30.834;2022-09-11T03:53:02;99429.87;;;15.72;73.12
50592;BME280;36548;50.506;30.834;2022-09-11T03:54:11;99429.55;;;15.75;73.04
50592;BME280;36548;50.506;30.834;2022-09-11T03:55:26;99424.27;;;15.83;73.05
50592;BME280;36548;50.506;30.834;2022-09-11T03:56:37;99426.84;;;15.75;73.10
50592;BME280;36548;50.506;30.834;2022-09-11T03:57:46;99431.11;;;15.77;72.99
50592;BME280;36548;50.506;30.834;2022-09-11T03:59:02;99427.37;;;15.88;72.86
50592;BME280;36548;50.506;30.834;2022-09-11T04:00:13;99434.97;;;15.75;72.85
50592;BME280;36548;50.506;30.834;2022-09-11T04:01:33;99443.77;;;15.77;72.97
50592;BME280;36548;50.506;30.834;2022-09-11T04:02:50;99443.73;;;15.87;72.89
50592;BME280;36548;50.506;30.834;2022-09-11T04:04:06;99447.50;;;15.76;72.98
50592;BME280;36548;50.506;30.834;2022-09-11T04:05:17;99444.95;;;15.74;72.97
50592;BME280;36548;50.506;30.834;2022-09-11T04:06:29;99440.06;;;15.78;73.00
50592;BME280;36548;50.506;30.834;2022-09-11T04:07:45;99440.19;;;15.86;72.92
50592;BME280;36548;50.506;30.834;2022-09-11T04:08:55;99451.20;;;15.75;73.09
50592;BME280;36548;50.506;30.834;2022-09-11T04:10:05;99454.06;;;15.73;73.02
50592;BME280;36548;50.506;30.834;2022-09-11T04:11:21;99444.92;;;15.84;73.11
50592;BME280;36548;50.506;30.834;2022-09-11T04:12:31;99442.25;;;15.74;73.06
50592;BME280;36548;50.506;30.834;2022-09-11T04:13:41;99445.39;;;15.69;73.16
50592;BME280;36548;50.506;30.834;2022-09-11T04:14:53;99438.82;;;15.72;73.18
50592;BME280;36548;50.506;30.834;2022-09-11T04:16:22;99444.39;;;15.71;73.36
50592;BME280;36548;50.506;30.834;2022-09-11T04:17:37;99433.66;;;15.79;73.32
50592;BME280;36548;50.506;30.834;2022-09-11T04:18:47;99452.66;;;15.69;73.44
50592;BME280;36548;50.506;30.834;2022-09-11T04:19:58;99452.66;;;15.69;73.51
50592;BME280;36548;50.506;30.834;2022-09-11T04:21:10;99452.20;;;15.74;73.54
50592;BME280;36548;50.506;30.834;2022-09-11T04:22:27;99456.73;;;15.83;73.57
50592;BME280;36548;50.506;30.834;2022-09-11T04:23:38;99455.62;;;15.76;73.59
50592;BME280;36548;50.506;30.834;2022-09-11T04:24:49;99456.17;;;15.79;73.38
50592;BME280;36548;50.506;30.834;2022-09-11T04:25:57;99467.00;;;15.79;73.45
50592;BME280;36548;50.506;30.834;2022-09-11T04:27:12;99460.22;;;15.93;73.36
50592;BME280;36548;50.506;30.834;2022-09-11T04:28:21;99461.00;;;15.85;73.40
50592;BME280;36548;50.506;30.834;2022-09-11T04:29:37;99463.32;;;15.98;73.49
50592;BME280;36548;50.506;30.834;2022-09-11T04:30:49;99470.20;;;15.93;73.54
50592;BME280;36548;50.506;30.834;2022-09-11T04:32:04;99463.09;;;16.10;73.20
50592;BME280;36548;50.506;30.834;2022-09-11T04:33:15;99470.29;;;16.01;73.27
50592;BME280;36548;50.506;30.834;2022-09-11T04:34:30;99468.06;;;16.14;73.13
50592;BME280;36548;50.506;30.834;2022-09-11T04:35:40;99473.40;;;16.06;73.26
50592;BME280;36548;50.506;30.834;2022-09-11T04:36:51;99470.69;;;16.06;72.97
50592;BME280;36548;50.506;30.834;2022-09-11T04:38:02;99473.23;;;16.08;72.75
50592;BME280;36548;50.506;30.834;2022-09-11T04:39:12;99473.77;;;16.11;72.80
50592;BME280;36548;50.506;30.834;2022-09-11T04:40:28;99464.80;;;16.29;73.03
50592;BME280;36548;50.506;30.834;2022-09-11T04:41:37;99471.38;;;16.26;73.05
50592;BME280;36548;50.506;30.834;2022-09-11T04:42:47;99468.51;;;16.28;72.78
50592;BME280;36548;50.506;30.834;2022-09-11T04:44:02;99468.11;;;16.41;72.66
50592;BME280;36548;50.506;30.834;2022-09-11T04:45:15;99473.00;;;16.37;72.86
50592;BME280;36548;50.506;30.834;2022-09-11T04:46:27;99471.69;;;16.41;72.59
50592;BME280;36548;50.506;30.834;2022-09-11T04:47:36;99481.36;;;16.44;72.72
50592;BME280;36548;50.506;30.834;2022-09-11T04:48:47;99481.20;;;16.45;72.11
50592;BME280;36548;50.506;30.834;2022-09-11T04:49:58;99479.97;;;16.40;71.42
50592;BME280;36548;50.506;30.834;2022-09-11T04:51:10;99481.52;;;16.42;71.76
50592;BME280;36548;50.506;30.834;2022-09-11T04:52:27;99475.70;;;16.55;71.81
50592;BME280;36548;50.506;30.834;2022-09-11T04:53:38;99473.92;;;16.46;71.70
50592;BME280;36548;50.506;30.834;2022-09-11T04:54:54;99472.34;;;16.61;71.77
50592;BME280;36548;50.506;30.834;2022-09-11T04:56:07;99473.15;;;16.53;71.90
50592;BME280;36548;50.506;30.834;2022-09-11T04:57:22;99468.70;;;16.70;71.79
50592;BME280;36548;50.506;30.834;2022-09-11T04:58:32;99476.60;;;16.64;71.57
50592;BME280;36548;50.506;30.834;2022-09-11T04:59:43;99477.15;;;16.67;71.30
50592;BME280;36548;50.506;30.834;2022-09-11T05:00:57;99471.15;;;16.82;71.07
50592;BME280;36548;50.506;30.834;2022-09-11T05:02:07;99479.92;;;16.76;71.04
50592;BME280;36548;50.506;30.834;2022-09-11T05:03:22;99465.66;;;16.92;70.64
50592;BME280;36548;50.506;30.834;2022-09-11T05:04:34;99485.53;;;16.82;70.45
50592;BME280;36548;50.506;30.834;2022-09-11T05:05:49;99475.17;;;16.96;70.15
50592;BME280;36548;50.506;30.834;2022-09-11T05:07:00;99471.53;;;16.87;70.13
50592;BME280;36548;50.506;30.834;2022-09-11T05:08:16;99477.26;;;17.02;69.92
50592;BME280;36548;50.506;30.834;2022-09-11T05:09:31;99477.37;;;16.92;69.71
50592;BME280;36548;50.506;30.834;2022-09-11T05:10:42;99486.02;;;16.96;69.68
50592;BME280;36548;50.506;30.834;2022-09-11T05:11:58;99481.35;;;17.06;69.62
50592;BME280;36548;50.506;30.834;2022-09-11T05:13:11;99477.50;;;16.91;69.83
50592;BME280;36548;50.506;30.834;2022-09-11T05:14:20;99479.98;;;16.84;69.99
50592;BME280;36548;50.506;30.834;2022-09-11T05:15:30;99481.92;;;16.74;69.77
50592;BME280;36548;50.506;30.834;2022-09-11T05:16:40;99476.44;;;16.65;70.23
50592;BME280;36548;50.506;30.834;2022-09-11T05:17:58;99476.28;;;16.67;70.80
50592;BME280;36548;50.506;30.834;2022-09-11T05:19:09;99478.85;;;16.50;70.68
50592;BME280;36548;50.506;30.834;2022-09-11T05:20:19;99479.97;;;16.40;70.58
50592;BME280;36548;50.506;30.834;2022-09-11T05:21:34;99480.33;;;16.45;71.09
50592;BME280;36548;50.506;30.834;2022-09-11T05:22:44;99479.58;;;16.34;70.93
50592;BME280;36548;50.506;30.834;2022-09-11T05:24:19;99479.02;;;16.49;70.89
50592;BME280;36548;50.506;30.834;2022-09-11T05:25:29;99478.81;;;16.42;70.69
50592;BME280;36548;50.506;30.834;2022-09-11T05:26:41;99479.88;;;16.49;71.13
50592;BME280;36548;50.506;30.834;2022-09-11T05:27:51;99486.92;;;16.60;71.19
50592;BME280;36548;50.506;30.834;2022-09-11T05:29:03;99484.57;;;16.65;70.52
50592;BME280;36548;50.506;30.834;2022-09-11T05:30:20;99476.56;;;16.82;69.97
50592;BME280;36548;50.506;30.834;2022-09-11T05:31:29;99482.64;;;16.76;69.81
50592;BME280;36548;50.506;30.834;2022-09-11T05:32:39;99485.34;;;16.76;69.12
50592;BME280;36548;50.506;30.834;2022-09-11T05:33:55;99477.05;;;16.77;68.91
50592;BME280;36548;50.506;30.834;2022-09-11T05:35:05;99484.73;;;16.64;69.58
50592;BME280;36548;50.506;30.834;2022-09-11T05:36:22;99479.31;;;16.64;69.81
50592;BME280;36548;50.506;30.834;2022-09-11T05:37:33;99488.17;;;16.48;70.69
50592;BME280;36548;50.506;30.834;2022-09-11T05:38:44;99487.94;;;16.41;70.82
50592;BME280;36548;50.506;30.834;2022-09-11T05:39:54;99485.99;;;16.33;70.86
50592;BME280;36548;50.506;30.834;2022-09-11T05:41:10;99487.23;;;16.39;71.04
50592;BME280;36548;50.506;30.834;2022-09-11T05:42:20;99484.76;;;16.28;70.94
50592;BME280;36548;50.506;30.834;2022-09-11T05:43:33;99486.47;;;16.29;70.77
50592;BME280;36548;50.506;30.834;2022-09-11T05:44:49;99484.75;;;16.46;71.16
50592;BME280;36548;50.506;30.834;2022-09-11T05:45:59;99488.09;;;16.40;70.78
50592;BME280;36548;50.506;30.834;2022-09-11T05:47:09;99493.80;;;16.36;69.83
50592;BME280;36548;50.506;30.834;2022-09-11T05:48:19;99491.25;;;16.35;69.91
50592;BME280;36548;50.506;30.834;2022-09-11T05:49:31;99498.77;;;16.41;70.32
50592;BME280;36548;50.506;30.834;2022-09-11T05:50:53;99495.91;;;16.43;69.82
50592;BME280;36548;50.506;30.834;2022-09-11T05:52:03;99505.42;;;16.29;70.13
50592;BME280;36548;50.506;30.834;2022-09-11T05:53:18;99500.33;;;16.26;70.43
50592;BME280;36548;50.506;30.834;2022-09-11T05:54:29;99501.86;;;16.10;71.18
50592;BME280;36548;50.506;30.834;2022-09-11T05:55:40;99498.75;;;16.05;71.69
50592;BME280;36548;50.506;30.834;2022-09-11T05:56:55;99489.17;;;16.11;71.54
50592;BME280;36548;50.506;30.834;2022-09-11T05:58:05;99500.06;;;16.01;71.70
50592;BME280;36548;50.506;30.834;2022-09-11T05:59:21;99486.30;;;16.12;71.30
50592;BME280;36548;50.506;30.834;2022-09-11T06:00:31;99497.76;;;16.06;71.25
50592;BME280;36548;50.506;30.834;2022-09-11T06:01:46;99487.94;;;16.23;71.43
50592;BME280;36548;50.506;30.834;2022-09-11T06:02:58;99488.38;;;16.18;71.47
50592;BME280;36548;50.506;30.834;2022-09-11T06:04:13;99485.67;;;16.36;70.92
50592;BME280;36548;50.506;30.834;2022-09-11T06:05:24;99499.69;;;16.32;71.00
50592;BME280;36548;50.506;30.834;2022-09-11T06:06:37;99493.12;;;16.34;70.55
50592;BME280;36548;50.506;30.834;2022-09-11T06:07:46;99491.09;;;16.36;70.44
50592;BME280;36548;50.506;30.834;2022-09-11T06:08:55;99485.23;;;16.41;70.39
50592;BME280;36548;50.506;30.834;2022-09-11T06:10:10;99486.05;;;16.60;70.63
50592;BME280;36548;50.506;30.834;2022-09-11T06:11:20;99486.53;;;16.55;70.40
50592;BME280;36548;50.506;30.834;2022-09-11T06:12:35;99484.96;;;16.70;69.35
50592;BME280;36548;50.506;30.834;2022-09-11T06:13:46;99491.31;;;16.61;69.15
50592;BME280;36548;50.506;30.834;2022-09-11T06:14:56;99500.15;;;16.63;68.80
50592;BME280;36548;50.506;30.834;2022-09-11T06:16:14;99488.34;;;16.73;68.80
50592;BME280;36548;50.506;30.834;2022-09-11T06:17:26;99492.34;;;16.60;69.11
50592;BME280;36548;50.506;30.834;2022-09-11T06:18:36;99496.81;;;16.51;68.94
50592;BME280;36548;50.506;30.834;2022-09-11T06:19:51;99493.27;;;16.51;68.65
50592;BME280;36548;50.506;30.834;2022-09-11T06:21:04;99499.53;;;16.33;69.34
50592;BME280;36548;50.506;30.834;2022-09-11T06:22:16;99497.30;;;16.29;69.71
50592;BME280;36548;50.506;30.834;2022-09-11T06:23:28;99494.83;;;16.17;68.95
50592;BME280;36548;50.506;30.834;2022-09-11T06:24:43;99493.80;;;16.18;69.44
50592;BME280;36548;50.506;30.834;2022-09-11T06:25:53;99498.05;;;16.03;69.89
50592;BME280;36548;50.506;30.834;2022-09-11T06:27:09;99494.49;;;16.02;69.73
50592;BME280;36548;50.506;30.834;2022-09-11T06:28:21;99495.18;;;15.77;69.52
50592;BME280;36548;50.506;30.834;2022-09-11T06:29:32;99505.37;;;15.65;69.99
50592;BME280;36548;50.506;30.834;2022-09-11T06:30:50;99493.30;;;15.59;70.56
50592;BME280;36548;50.506;30.834;2022-09-11T06:32:01;99499.64;;;15.40;71.07
50592;BME280;36548;50.506;30.834;2022-09-11T06:33:12;99498.87;;;15.20;71.72
50592;BME280;36548;50.506;30.834;2022-09-11T06:34:22;99502.60;;;15.09;72.30
50592;BME280;36548;50.506;30.834;2022-09-11T06:35:32;99493.20;;;15.13;72.66
50592;BME280;36548;50.506;30.834;2022-09-11T06:36:47;99497.28;;;15.27;72.64
50592;BME280;36548;50.506;30.834;2022-09-11T06:37:58;99500.17;;;15.16;72.26
50592;BME280;36548;50.506;30.834;2022-09-11T06:39:32;99495.94;;;15.41;72.51
50592;BME280;36548;50.506;30.834;2022-09-11T06:40:41;99508.36;;;15.34;72.11
50592;BME280;36548;50.506;30.834;2022-09-11T06:41:56;99494.45;;;15.57;72.49
50592;BME280;36548;50.506;30.834;2022-09-11T06:43:08;99503.70;;;15.54;71.84
50592;BME280;36548;50.506;30.834;2022-09-11T06:44:23;99503.17;;;15.78;71.95
50592;BME280;36548;50.506;30.834;2022-09-11T06:45:35;99511.88;;;15.72;70.75
50592;BME280;36548;50.506;30.834;2022-09-11T06:46:50;99503.42;;;15.85;70.46
50592;BME280;36548;50.506;30.834;2022-09-11T06:48:00;99506.00;;;15.77;70.41
50592;BME280;36548;50.506;30.834;2022-09-11T06:49:16;99510.33;;;15.97;70.66
50592;BME280;36548;50.506;30.834;2022-09-11T06:50:44;99510.55;;;15.86;70.12
50592;BME280;36548;50.506;30.834;2022-09-11T06:52:00;99514.00;;;16.06;70.24
50592;BME280;36548;50.506;30.834;2022-09-11T06:53:12;99513.59;;;16.01;70.19
50592;BME280;36548;50.506;30.834;2022-09-11T06:54:31;99504.63;;;16.18;70.06
50592;BME280;36548;50.506;30.834;2022-09-11T06:55:42;99507.80;;;16.14;69.84
50592;BME280;36548;50.506;30.834;2022-09-11T06:56:58;99508.29;;;16.27;69.07
50592;BME280;36548;50.506;30.834;2022-09-11T06:58:08;99523.65;;;16.09;68.41
50592;BME280;36548;50.506;30.834;2022-09-11T06:59:16;99524.77;;;16.16;68.89
50592;BME280;36548;50.506;30.834;2022-09-11T07:00:35;99515.86;;;16.24;68.93
50592;BME280;36548;50.506;30.834;2022-09-11T07:01:44;99526.08;;;16.12;69.65
50592;BME280;36548;50.506;30.834;2022-09-11T07:03:00;99525.29;;;16.19;70.15
50592;BME280;36548;50.506;30.834;2022-09-11T07:04:10;99526.52;;;16.07;70.28